Time;durP1;ratioP1;P1;durP2;ratioP2;P2;SDS_P1;SDS_P2;PMS_P1;PMS_P2;Temp;Humidity;BMP_temperature;BMP_pressure;BME280_temperature;BME280_humidity;BME280_pressure;Samples;Min_cycle;Max_cycle;Signal;HPM_P1;HPM_P2
2022/07/26 00:01:31;;;;;;;6.93;1.77;;;;;;;13.80;100.00;98539.16;5103048;27;20038;-95
2022/07/26 00:03:57;;;;;;;9.43;2.10;;;;;;;13.64;100.00;98539.53;5106053;28;20283;-94
2022/07/26 00:06:24;;;;;;;9.40;1.98;;;;;;;13.81;100.00;98544.34;5095113;28;20024;-96
2022/07/26 00:08:50;;;;;;;10.02;1.90;;;;;;;13.74;100.00;98549.81;5121713;27;20031;-92
2022/07/26 00:11:16;;;;;;;8.18;1.75;;;;;;;13.11;100.00;98565.19;5092235;28;20040;-93
2022/07/26 00:13:42;;;;;;;9.98;1.90;;;;;;;12.88;100.00;98589.28;5093095;28;20135;-94
2022/07/26 00:16:08;;;;;;;8.90;2.03;;;;;;;13.39;100.00;98596.03;5080873;28;20165;-95
2022/07/26 00:18:34;;;;;;;7.55;1.65;;;;;;;12.63;100.00;98590.63;5089201;28;20109;-94
2022/07/26 00:21:00;;;;;;;13.20;2.67;;;;;;;12.64;100.00;98607.22;5090079;28;20132;-92
2022/07/26 00:23:26;;;;;;;8.55;2.05;;;;;;;12.53;100.00;98623.13;5083468;28;20036;-93
2022/07/26 00:25:51;;;;;;;10.75;1.85;;;;;;;12.36;100.00;98633.91;5092148;28;20551;-94
2022/07/26 00:28:17;;;;;;;7.53;1.83;;;;;;;12.46;100.00;98647.66;5081474;28;20035;-93
2022/07/26 00:30:42;;;;;;;9.93;2.17;;;;;;;12.70;100.00;98645.47;5089570;28;20024;-95
2022/07/26 00:33:08;;;;;;;7.97;2.15;;;;;;;13.25;100.00;98649.56;5087911;28;20024;-94
2022/07/26 00:35:34;;;;;;;11.13;2.38;;;;;;;13.53;100.00;98627.16;5095176;28;20031;-92
2022/07/26 00:37:59;;;;;;;10.35;1.90;;;;;;;13.16;100.00;98618.34;5083147;28;20228;-93
2022/07/26 00:40:25;;;;;;;8.13;1.95;;;;;;;12.87;100.00;98614.56;5080938;28;20020;-94
2022/07/26 00:42:50;;;;;;;8.35;1.88;;;;;;;12.42;100.00;98630.31;5085503;28;20055;-95
2022/07/26 00:45:16;;;;;;;7.80;1.77;;;;;;;12.49;100.00;98639.75;5091135;28;20047;-96
2022/07/26 00:47:42;;;;;;;10.48;1.95;;;;;;;12.82;100.00;98645.25;5087847;28;20050;-94
2022/07/26 00:50:13;;;;;;;8.10;1.92;;;;;;;12.95;100.00;98651.94;5095315;28;20032;-94
2022/07/26 00:52:42;;;;;;;9.65;1.83;;;;;;;12.62;100.00;98650.84;5100468;28;20032;-92
2022/07/26 00:55:08;;;;;;;10.55;2.45;;;;;;;12.81;100.00;98648.75;5090501;28;20047;-95
2022/07/26 00:57:34;;;;;;;13.20;2.17;;;;;;;12.73;100.00;98656.72;5078988;28;20125;-96
2022/07/26 01:00:05;;;;;;;8.68;2.10;;;;;;;12.63;100.00;98656.03;5085772;28;20040;-91
2022/07/26 01:02:31;;;;;;;10.13;2.10;;;;;;;12.64;100.00;98657.78;5088043;28;20108;-92
2022/07/26 01:04:56;;;;;;;9.45;2.00;;;;;;;12.85;100.00;98660.88;5089011;28;20020;-94
2022/07/26 01:07:23;;;;;;;9.48;2.05;;;;;;;12.74;100.00;98658.47;5114502;27;20028;-94
2022/07/26 01:09:49;;;;;;;7.20;1.67;;;;;;;12.79;100.00;98651.38;5124547;27;20032;-95
2022/07/26 01:12:14;;;;;;;8.65;2.08;;;;;;;12.70;100.00;98637.63;5090653;28;20084;-94
2022/07/26 01:14:44;;;;;;;8.30;2.03;;;;;;;12.37;100.00;98634.75;5091986;28;20071;-93
2022/07/26 01:17:11;;;;;;;9.57;1.75;;;;;;;12.56;100.00;98637.88;5121151;27;20043;-94
2022/07/26 01:19:36;;;;;;;8.65;2.10;;;;;;;12.42;100.00;98640.75;5084635;28;20123;-92
2022/07/26 01:22:02;;;;;;;8.75;1.90;;;;;;;12.27;100.00;98640.13;5082896;28;20107;-93
2022/07/26 01:24:28;;;;;;;8.82;2.20;;;;;;;12.43;100.00;98648.56;5094796;28;20059;-95
2022/07/26 01:26:56;;;;;;;6.30;1.90;;;;;;;12.56;100.00;98648.34;5086949;28;20023;-93
2022/07/26 01:29:22;;;;;;;10.73;2.28;;;;;;;12.73;100.00;98655.88;5089848;28;20032;-95
2022/07/26 01:31:48;;;;;;;10.18;2.13;;;;;;;12.62;100.00;98656.97;5078895;28;21417;-94
2022/07/26 01:34:14;;;;;;;8.57;1.98;;;;;;;12.73;100.00;98653.25;5088992;28;20479;-94
2022/07/26 01:36:39;;;;;;;7.68;2.38;;;;;;;12.91;100.00;98649.41;5089782;28;20028;-96
2022/07/26 01:39:05;;;;;;;9.75;2.05;;;;;;;13.09;100.00;98651.63;5088882;27;20039;-94
2022/07/26 01:41:31;;;;;;;10.68;2.42;;;;;;;12.89;100.00;98640.75;5081096;28;20024;-95
2022/07/26 01:43:57;;;;;;;12.63;2.22;;;;;;;12.69;100.00;98652.44;5074899;28;20030;-93
2022/07/26 01:46:22;;;;;;;10.68;2.03;;;;;;;12.87;100.00;98653.84;5109724;27;20024;-94
2022/07/26 01:48:48;;;;;;;11.77;1.90;;;;;;;12.75;100.00;98656.72;5092669;27;20026;-95
2022/07/26 01:51:14;;;;;;;8.63;1.92;;;;;;;12.76;100.00;98658.44;5078799;28;22291;-95
2022/07/26 01:53:39;;;;;;;10.52;2.22;;;;;;;12.53;100.00;98657.13;5089131;28;20541;-95
2022/07/26 01:56:05;;;;;;;8.75;1.77;;;;;;;13.06;100.00;98659.56;5093120;28;20035;-96
2022/07/26 01:58:31;;;;;;;8.25;1.83;;;;;;;12.51;100.00;98632.75;5087550;28;20395;-92
2022/07/26 02:00:56;;;;;;;12.85;2.00;;;;;;;12.75;100.00;98659.34;5079829;28;20606;-93
2022/07/26 02:03:22;;;;;;;11.57;2.00;;;;;;;14.51;100.00;98629.94;5098132;27;20040;-93
2022/07/26 02:05:47;;;;;;;8.25;2.10;;;;;;;12.07;100.00;98634.41;5086071;28;20493;-93
2022/07/26 02:08:13;;;;;;;11.95;1.90;;;;;;;11.72;100.00;98659.34;5086087;28;20051;-93
2022/07/26 02:13:22;;;;;;;10.25;1.80;;;;;;;11.74;100.00;98681.06;5086861;28;20035;-92
2022/07/26 02:15:48;;;;;;;11.10;2.33;;;;;;;11.56;100.00;98690.88;5082143;28;20036;-93
2022/07/26 02:18:14;;;;;;;8.27;1.90;;;;;;;11.80;100.00;98686.19;5086606;28;20455;-95
2022/07/26 02:20:39;;;;;;;7.43;1.70;;;;;;;11.62;100.00;98697.75;5109414;27;20028;-94
2022/07/26 02:23:05;;;;;;;10.48;1.90;;;;;;;13.53;100.00;98661.22;5086011;28;20220;-95
2022/07/26 02:25:30;;;;;;;8.63;1.92;;;;;;;12.20;100.00;98637.66;5089520;28;20594;-96
2022/07/26 02:27:56;;;;;;;8.30;1.95;;;;;;;14.04;100.00;98605.81;5089357;28;20035;-94
2022/07/26 02:30:21;;;;;;;9.82;2.20;;;;;;;13.58;100.00;98599.09;5084574;28;21284;-96
2022/07/26 02:32:47;;;;;;;10.35;2.00;;;;;;;13.77;100.00;98592.50;5085447;28;20032;-92
2022/07/26 02:35:13;;;;;;;12.27;1.90;;;;;;;13.95;100.00;98577.22;5086673;28;20032;-94
2022/07/26 02:38:18;;;;;;;10.50;2.03;;;;;;;13.75;100.00;98575.09;5085517;28;20028;-93
2022/07/26 02:40:44;;;;;;;7.88;1.63;;;;;;;13.79;100.00;98579.34;5060669;28;20032;-93
2022/07/26 02:43:10;;;;;;;12.00;2.15;;;;;;;13.80;100.00;98575.84;5088524;28;20027;-92
2022/07/26 02:45:36;;;;;;;8.35;1.73;;;;;;;14.05;100.00;98577.84;5084608;28;20482;-96
2022/07/26 02:48:02;;;;;;;11.13;2.22;;;;;;;13.72;100.00;98586.50;5120475;27;20095;-93
2022/07/26 02:50:28;;;;;;;12.55;1.92;;;;;;;13.67;100.00;98588.41;5088768;28;20530;-92
2022/07/26 02:52:55;;;;;;;8.35;1.95;;;;;;;13.65;100.00;98590.19;5083459;28;20036;-92
2022/07/26 02:55:23;;;;;;;8.38;1.75;;;;;;;14.51;100.00;98572.19;5099783;28;20036;-93
2022/07/26 02:57:48;;;;;;;10.35;1.85;;;;;;;13.82;100.00;98582.78;5089337;28;20034;-92
2022/07/26 03:00:16;;;;;;;12.38;2.15;;;;;;;13.73;100.00;98585.63;5090751;28;20020;-93
2022/07/26 03:02:42;;;;;;;10.38;2.33;;;;;;;14.08;100.00;98583.00;5085117;28;20798;-93
2022/07/26 03:05:09;;;;;;;9.15;2.10;;;;;;;12.13;100.00;98631.69;5084692;28;20039;-94
2022/07/26 03:07:35;;;;;;;12.32;2.70;;;;;;;11.82;100.00;98658.28;5085347;28;20039;-92
2022/07/26 03:10:01;;;;;;;7.05;1.65;;;;;;;11.85;100.00;98676.53;5090444;28;20027;-92
2022/07/26 03:12:26;;;;;;;9.80;2.10;;;;;;;12.08;100.00;98696.25;5097873;28;20088;-93
2022/07/26 03:14:52;;;;;;;8.90;1.80;;;;;;;11.95;100.00;98691.22;5091204;28;21176;-93
2022/07/26 03:17:18;;;;;;;8.98;1.77;;;;;;;12.38;100.00;98699.25;5092264;28;20024;-94
2022/07/26 03:19:44;;;;;;;9.95;2.38;;;;;;;11.78;100.00;98696.66;5086162;28;20028;-93
2022/07/26 03:22:10;;;;;;;9.25;1.90;;;;;;;11.94;100.00;98710.41;5088278;28;20489;-93
2022/07/26 03:24:36;;;;;;;9.63;1.98;;;;;;;11.81;100.00;98705.34;5084975;28;20061;-92
2022/07/26 03:27:02;;;;;;;9.70;1.90;;;;;;;11.89;100.00;98712.19;5090135;28;20124;-92
2022/07/26 03:29:27;;;;;;;7.90;2.08;;;;;;;13.09;100.00;98722.34;5081502;28;20032;-93
2022/07/26 03:31:53;;;;;;;10.68;2.25;;;;;;;11.95;100.00;98711.25;5090520;28;20020;-92
2022/07/26 03:34:18;;;;;;;9.05;2.00;;;;;;;12.02;100.00;98712.88;5086768;28;20043;-94
2022/07/26 03:36:44;;;;;;;8.93;2.17;;;;;;;11.77;100.00;98721.09;5079736;28;20024;-93
2022/07/26 03:39:10;;;;;;;9.55;1.90;;;;;;;11.73;100.00;98728.97;5088428;28;20032;-95
2022/07/26 03:41:35;;;;;;;8.85;2.00;;;;;;;13.47;100.00;98728.59;5085743;28;20039;-90
2022/07/26 03:44:01;;;;;;;10.43;2.22;;;;;;;11.81;100.00;98715.81;5088870;28;20013;-91
2022/07/26 03:46:27;;;;;;;9.20;1.73;;;;;;;11.62;100.00;98729.09;5094245;28;20067;-95
2022/07/26 03:48:52;;;;;;;8.55;1.95;;;;;;;11.81;100.00;98734.09;5094711;28;20056;-92
2022/07/26 03:51:18;;;;;;;10.45;1.90;;;;;;;11.41;100.00;98740.72;5088150;28;20062;-92
2022/07/26 03:53:44;;;;;;;11.20;2.00;;;;;;;13.03;100.00;98726.84;5098929;28;20499;-94
2022/07/26 03:56:27;;;;;;;12.60;2.00;;;;;;;13.43;100.00;98699.84;5086841;28;20495;-93
2022/07/26 03:58:54;;;;;;;11.80;2.05;;;;;;;11.82;100.00;98707.09;5096971;28;20033;-93
2022/07/26 04:01:20;;;;;;;10.38;1.85;;;;;;;11.71;100.00;98733.38;5089620;28;20034;-93
2022/07/26 04:03:48;;;;;;;12.07;2.00;;;;;;;11.71;100.00;98741.22;5092540;28;20024;-93
2022/07/26 04:06:14;;;;;;;11.82;1.90;;;;;;;11.63;100.00;98749.13;5086111;28;20376;-95
2022/07/26 04:08:39;;;;;;;6.70;1.80;;;;;;;11.78;100.00;98756.75;5095043;28;20024;-93
2022/07/26 04:11:05;;;;;;;12.93;2.10;;;;;;;11.89;100.00;98755.75;5086250;28;20035;-92
2022/07/26 04:13:31;;;;;;;12.13;2.20;;;;;;;11.78;100.00;98758.50;5091584;28;20052;-92
2022/07/26 04:15:56;;;;;;;8.38;1.98;;;;;;;11.83;100.00;98755.81;5118079;27;20035;-94
2022/07/26 04:18:22;;;;;;;11.27;1.88;;;;;;;12.61;100.00;98736.31;5089413;28;20028;-93
2022/07/26 04:20:47;;;;;;;10.77;2.08;;;;;;;11.75;100.00;98742.88;5086966;28;20027;-94
2022/07/26 04:23:13;;;;;;;9.75;2.15;;;;;;;11.64;100.00;98750.88;5120567;27;20028;-92
2022/07/26 04:25:42;;;;;;;7.28;1.75;;;;;;;11.77;100.00;98762.00;5088571;28;20035;-93
2022/07/26 04:28:08;;;;;;;8.45;1.80;;;;;;;11.81;100.00;98763.69;5089645;28;20123;-94
2022/07/26 04:30:34;;;;;;;8.38;2.00;;;;;;;11.87;100.00;98767.97;5090017;28;20176;-92
2022/07/26 04:32:59;;;;;;;9.30;1.92;;;;;;;12.05;100.00;98769.47;5079465;28;20110;-93
2022/07/26 04:35:25;;;;;;;9.60;1.75;;;;;;;12.01;100.00;98758.22;5092273;28;20032;-92
2022/07/26 04:37:50;;;;;;;16.05;2.03;;;;;;;13.89;100.00;98753.00;5089298;28;20728;-93
2022/07/26 04:40:18;;;;;;;12.38;2.15;;;;;;;14.19;100.00;98704.22;5095844;28;20058;-96
2022/07/26 04:42:44;;;;;;;8.75;2.03;;;;;;;12.60;100.00;98700.56;5097296;28;20034;-93
2022/07/26 04:45:11;;;;;;;6.93;1.90;;;;;;;12.13;100.00;98733.63;5083174;28;20036;-95
2022/07/26 04:47:40;;;;;;;10.70;1.90;;;;;;;11.89;100.00;98751.38;5117558;27;20035;-94
2022/07/26 04:50:06;;;;;;;11.88;1.67;;;;;;;13.87;100.00;98755.66;5085551;28;20125;-95
2022/07/26 04:52:31;;;;;;;11.02;2.28;;;;;;;12.02;100.00;98743.41;5084345;28;20812;-94
2022/07/26 04:54:57;;;;;;;6.88;1.77;;;;;;;11.97;100.00;98761.78;5088423;28;20479;-95
2022/07/26 04:57:22;;;;;;;12.70;2.25;;;;;;;11.72;100.00;98780.38;5086281;28;20073;-91
2022/07/26 04:59:48;;;;;;;11.13;1.88;;;;;;;12.96;100.00;98795.00;5100003;28;20560;-94
2022/07/26 05:02:14;;;;;;;10.68;2.10;;;;;;;13.73;100.00;98783.97;5088305;28;20447;-95
2022/07/26 05:04:41;;;;;;;40.35;3.70;;;;;;;13.69;100.00;98775.28;5099715;28;20497;-92
2022/07/26 05:07:08;;;;;;;9.50;2.22;;;;;;;11.71;100.00;98775.16;5073935;28;20035;-94
2022/07/26 05:09:34;;;;;;;7.70;1.98;;;;;;;11.95;100.00;98795.78;5106736;27;20035;-94
2022/07/26 05:11:59;;;;;;;9.32;2.00;;;;;;;11.67;100.00;98807.44;5075082;28;20028;-93
2022/07/26 05:14:25;;;;;;;8.82;1.95;;;;;;;11.98;100.00;98787.00;5077131;28;20033;-92
2022/07/26 05:16:50;;;;;;;7.78;2.22;;;;;;;11.91;100.00;98796.66;5086913;28;20032;-95
2022/07/26 05:19:16;;;;;;;8.55;2.22;;;;;;;11.84;100.00;98805.44;5079920;28;20058;-92
2022/07/26 05:21:41;;;;;;;12.05;2.30;;;;;;;11.79;100.00;98797.69;5082562;28;20028;-91
2022/07/26 05:24:07;;;;;;;7.70;1.63;;;;;;;11.95;100.00;98795.78;5084216;28;20072;-94
2022/07/26 05:26:33;;;;;;;8.43;1.95;;;;;;;11.89;100.00;98795.81;5086197;28;20039;-95
2022/07/26 05:28:58;;;;;;;7.70;1.83;;;;;;;11.80;100.00;98806.38;5085329;28;20802;-94
2022/07/26 05:31:24;;;;;;;9.20;1.88;;;;;;;13.25;100.00;98814.56;5108208;27;20127;-96
2022/07/26 05:33:50;;;;;;;8.23;2.08;;;;;;;12.96;100.00;98770.59;5088604;28;20445;-91
2022/07/26 05:36:16;;;;;;;11.23;2.20;;;;;;;14.39;100.00;98743.09;5084298;28;20750;-92
2022/07/26 05:38:41;;;;;;;11.23;4.55;;;;;;;14.87;100.00;98707.75;5087426;28;20748;-92
2022/07/26 05:41:07;;;;;;;9.40;2.00;;;;;;;13.42;100.00;98706.00;5091809;28;20052;-92
2022/07/26 05:43:33;;;;;;;8.05;2.10;;;;;;;14.24;100.00;98719.88;5091639;28;20032;-96
2022/07/26 05:45:58;;;;;;;10.40;2.35;;;;;;;14.88;100.00;98703.34;5088671;28;20433;-94
2022/07/26 05:48:24;;;;;;;10.18;2.10;;;;;;;12.57;100.00;98733.81;5084633;28;20548;-96
2022/07/26 05:50:53;;;;;;;9.73;2.15;;;;;;;12.58;100.00;98767.78;5119596;27;20158;-96
2022/07/26 05:53:26;;;;;;;9.05;1.80;;;;;;;12.27;100.00;98777.88;5079315;28;20111;-93
2022/07/26 05:55:52;;;;;;;11.48;2.30;;;;;;;12.46;100.00;98802.84;5094211;28;20051;-93
2022/07/26 05:58:18;;;;;;;11.52;2.40;;;;;;;12.59;100.00;98813.97;5091361;28;20019;-93
2022/07/26 06:00:43;;;;;;;10.50;2.15;;;;;;;12.32;100.00;98817.00;5083582;28;20047;-92
2022/07/26 06:03:21;;;;;;;8.20;1.80;;;;;;;12.43;100.00;98817.75;5074158;28;20031;-91
2022/07/26 06:05:55;;;;;;;7.75;2.08;;;;;;;12.39;100.00;98814.28;5088575;28;20020;-92
2022/07/26 06:08:22;;;;;;;8.52;1.70;;;;;;;12.55;100.00;98814.91;5087315;28;20503;-93
2022/07/26 06:10:48;;;;;;;9.45;2.40;;;;;;;12.71;100.00;98809.44;5075000;28;20075;-92
2022/07/26 06:13:14;;;;;;;7.28;1.63;;;;;;;12.74;100.00;98801.53;5082624;28;20059;-93
2022/07/26 06:15:41;;;;;;;9.13;1.90;;;;;;;12.90;100.00;98795.13;5086415;28;20058;-93
2022/07/26 06:18:06;;;;;;;11.52;2.10;;;;;;;13.05;100.00;98793.97;5087284;28;20042;-95
2022/07/26 06:20:32;;;;;;;9.43;2.00;;;;;;;12.98;100.00;98798.47;5089435;28;20036;-93
2022/07/26 06:22:58;;;;;;;10.00;1.88;;;;;;;13.16;100.00;98801.63;5090183;28;20113;-95
2022/07/26 06:25:26;;;;;;;13.52;2.30;;;;;;;13.13;100.00;98793.84;5090321;28;20032;-94
2022/07/26 06:27:52;;;;;;;9.95;1.95;;;;;;;13.20;100.00;98797.22;5092157;28;20031;-93
2022/07/26 06:30:19;;;;;;;8.93;1.83;;;;;;;13.12;100.00;98794.72;5094232;28;20031;-94
2022/07/26 06:32:44;;;;;;;10.13;1.90;;;;;;;13.11;100.00;98798.22;5084789;28;20036;-95
2022/07/26 06:35:11;;;;;;;8.95;1.80;;;;;;;12.95;100.00;98798.53;5087933;28;20031;-95
2022/07/26 06:37:37;;;;;;;9.27;1.90;;;;;;;13.13;100.00;98810.41;5091845;28;20031;-93
2022/07/26 06:40:05;;;;;;;11.00;2.10;;;;;;;14.12;100.00;98810.19;5087839;28;21463;-94
2022/07/26 06:42:31;;;;;;;9.35;1.92;;;;;;;15.54;100.00;98746.16;5091798;28;20023;-96
2022/07/26 06:44:58;;;;;;;9.80;2.72;;;;;;;15.35;100.00;98711.66;5087126;28;20023;-96
2022/07/26 06:47:23;;;;;;;8.63;2.45;;;;;;;15.02;100.00;98711.75;5081849;28;20039;-93
2022/07/26 06:49:49;;;;;;;13.77;3.58;;;;;;;15.41;100.00;98700.97;5082007;28;20139;-92
2022/07/26 06:52:14;;;;;;;11.32;4.38;;;;;;;15.06;100.00;98718.63;5119127;27;20551;-92
2022/07/26 06:54:40;;;;;;;12.15;4.07;;;;;;;13.97;100.00;98733.59;5078151;28;20036;-93
2022/07/26 06:57:05;;;;;;;11.80;3.03;;;;;;;13.71;100.00;98756.91;5080938;28;20137;-93
2022/07/26 06:59:31;;;;;;;9.85;2.95;;;;;;;13.87;100.00;98768.78;5087763;28;20094;-94
2022/07/26 07:01:56;;;;;;;11.43;2.83;;;;;;;14.48;100.00;98766.47;5085518;28;20035;-92
2022/07/26 07:04:22;;;;;;;10.98;2.90;;;;;;;14.35;100.00;98765.06;5086551;28;20059;-92
2022/07/26 07:06:47;;;;;;;11.00;2.45;;;;;;;14.51;100.00;98771.63;5086607;28;20447;-94
2022/07/26 07:09:13;;;;;;;10.60;2.30;;;;;;;13.81;100.00;98754.06;5080569;28;20083;-93
2022/07/26 07:11:39;;;;;;;10.07;2.08;;;;;;;14.26;100.00;98766.13;5085917;28;20054;-92
2022/07/26 07:14:04;;;;;;;9.80;2.05;;;;;;;14.54;100.00;98775.09;5087707;28;20060;-93
2022/07/26 07:16:30;;;;;;;11.38;2.35;;;;;;;14.29;100.00;98778.31;5083795;28;20039;-92
2022/07/26 07:18:55;;;;;;;9.05;2.58;;;;;;;14.26;100.00;98776.63;5095123;28;20067;-94
2022/07/26 07:21:21;;;;;;;9.88;2.30;;;;;;;14.17;100.00;98785.56;5089625;28;20483;-94
2022/07/26 07:23:46;;;;;;;7.68;2.20;;;;;;;13.86;100.00;98788.00;5087459;28;20028;-94
2022/07/26 07:26:11;;;;;;;9.23;2.28;;;;;;;14.26;100.00;98792.34;5097185;28;20992;-93
2022/07/26 07:28:37;;;;;;;14.02;2.88;;;;;;;14.12;100.00;98805.78;5092717;28;20031;-93
2022/07/26 07:31:04;;;;;;;9.15;3.28;;;;;;;14.31;100.00;98814.09;5089623;28;20745;-94
2022/07/26 07:33:30;;;;;;;10.57;2.90;;;;;;;14.45;100.00;98816.41;5088118;28;20066;-94
2022/07/26 07:35:56;;;;;;;7.65;1.90;;;;;;;13.61;100.00;98803.41;5121892;27;20052;-94
2022/07/26 07:38:21;;;;;;;9.20;2.20;;;;;;;13.49;100.00;98820.25;5094022;28;20093;-94
2022/07/26 07:40:47;;;;;;;7.40;2.33;;;;;;;14.02;100.00;98824.41;5092752;28;20653;-94
2022/07/26 07:43:13;;;;;;;6.65;2.10;;;;;;;13.74;100.00;98822.38;5099449;28;20032;-94
2022/07/26 07:45:38;;;;;;;9.57;2.45;;;;;;;13.83;100.00;98830.03;5100850;28;20394;-94
2022/07/26 07:48:04;;;;;;;7.72;2.00;;;;;;;13.93;100.00;98833.31;5091448;28;20036;-93
2022/07/26 07:50:31;;;;;;;8.18;2.13;;;;;;;13.96;100.00;98836.75;5096415;28;21490;-94
2022/07/26 07:52:57;;;;;;;9.30;2.10;;;;;;;13.94;100.00;98838.53;5096777;28;20116;-94
2022/07/26 07:55:22;;;;;;;9.60;2.42;;;;;;;13.75;100.00;98834.56;5085220;28;20051;-93
2022/07/26 07:57:48;;;;;;;9.63;2.05;;;;;;;13.96;100.00;98831.50;5090024;28;20028;-95
2022/07/26 08:00:15;;;;;;;8.82;2.10;;;;;;;13.70;100.00;98826.81;5089125;28;20038;-92
2022/07/26 08:02:41;;;;;;;10.85;2.42;;;;;;;13.87;100.00;98839.56;5088043;28;20482;-93
2022/07/26 08:05:08;;;;;;;8.63;2.05;;;;;;;14.17;100.00;98831.94;5095789;28;20039;-96
2022/07/26 08:07:34;;;;;;;8.43;2.03;;;;;;;14.19;100.00;98839.78;5091895;28;20053;-96
2022/07/26 08:09:59;;;;;;;8.10;2.42;;;;;;;14.50;100.00;98840.78;5104806;28;20019;-94
2022/07/26 08:12:25;;;;;;;7.60;1.63;;;;;;;14.60;100.00;98841.44;5093776;28;20036;-94
2022/07/26 08:14:50;;;;;;;8.13;1.80;;;;;;;14.41;100.00;98825.25;5083157;28;20044;-94
2022/07/26 08:17:16;;;;;;;7.03;1.58;;;;;;;14.50;100.00;98832.03;5084283;28;20035;-96
2022/07/26 08:19:47;;;;;;;5.93;1.40;;;;;;;14.19;100.00;98826.66;5098963;28;20637;-95
2022/07/26 08:22:13;;;;;;;7.80;1.65;;;;;;;14.25;100.00;98822.13;5091278;28;20039;-94
2022/07/26 08:24:39;;;;;;;12.15;1.98;;;;;;;14.66;100.00;98829.94;5094642;28;20565;-96
2022/07/26 08:27:05;;;;;;;6.90;1.40;;;;;;;14.59;100.00;98816.06;5088388;28;20127;-93
2022/07/26 08:29:30;;;;;;;6.75;1.50;;;;;;;14.30;100.00;98816.78;5087061;28;20028;-94
2022/07/26 08:31:56;;;;;;;9.40;1.42;;;;;;;14.75;100.00;98816.59;5083660;28;20024;-95
2022/07/26 08:34:22;;;;;;;4.63;1.10;;;;;;;15.18;100.00;98807.59;5097483;28;20486;-96
2022/07/26 08:36:47;;;;;;;8.18;1.50;;;;;;;14.75;100.00;98811.34;5087966;28;20028;-96
2022/07/26 08:39:15;;;;;;;7.03;1.52;;;;;;;16.14;100.00;98798.75;5091675;28;20469;-95
2022/07/26 08:41:41;;;;;;;7.45;1.23;;;;;;;16.38;100.00;98779.56;5104112;28;20497;-96
2022/07/26 08:44:12;;;;;;;7.82;1.42;;;;;;;16.06;100.00;98783.22;5097145;28;20016;-96
2022/07/26 08:46:40;;;;;;;6.47;1.50;;;;;;;15.76;100.00;98784.97;5095027;28;20118;-95
2022/07/26 08:49:08;;;;;;;6.63;1.30;;;;;;;15.45;100.00;98791.97;5107616;28;20111;-95
2022/07/26 08:51:38;;;;;;;3.75;1.00;;;;;;;15.03;100.00;98808.03;5095432;28;20111;-96
2022/07/26 08:54:04;;;;;;;4.95;1.00;;;;;;;15.34;100.00;98808.03;5101423;28;20052;-95
2022/07/26 08:56:35;;;;;;;4.72;0.93;;;;;;;15.08;100.00;98814.00;5103710;28;20043;-94
2022/07/26 08:59:15;;;;;;;3.78;0.80;;;;;;;14.98;100.00;98818.63;5106447;28;20032;-93
2022/07/26 09:01:57;;;;;;;4.63;0.80;;;;;;;14.80;100.00;98835.72;5101486;28;20028;-94
2022/07/26 09:04:26;;;;;;;4.72;1.00;;;;;;;15.23;100.00;98835.53;5100549;28;20138;-96
2022/07/26 09:07:10;;;;;;;4.53;1.00;;;;;;;15.46;100.00;98830.50;5102332;28;20039;-95
2022/07/26 09:09:54;;;;;;;4.97;1.13;;;;;;;15.68;100.00;98838.66;5104261;28;20035;-95
2022/07/26 09:12:21;;;;;;;4.07;1.00;;;;;;;15.40;100.00;98835.91;5104581;28;20514;-96
2022/07/26 09:14:47;;;;;;;4.57;1.10;;;;;;;15.56;100.00;98819.69;5106216;28;20035;-96
2022/07/26 09:17:15;;;;;;;4.25;1.00;;;;;;;15.55;100.00;98818.84;5106196;28;20039;-96
2022/07/26 09:19:41;;;;;;;5.90;1.40;;;;;;;15.86;100.00;98813.59;5102399;28;20035;-96
2022/07/26 09:22:14;;;;;;;5.50;1.30;;;;;;;15.84;100.00;98804.88;5100944;28;20028;-95
2022/07/26 09:24:47;;;;;;;5.30;1.30;;;;;;;15.59;100.00;98819.63;5103823;28;20042;-95
2022/07/26 09:27:17;;;;;;;4.55;1.20;;;;;;;15.31;100.00;98823.88;5098819;28;20027;-94
2022/07/26 09:29:51;;;;;;;6.32;1.35;;;;;;;14.92;100.00;98824.03;5101275;28;20118;-94
2022/07/26 09:32:25;;;;;;;4.13;1.08;;;;;;;15.64;100.00;98822.97;5105842;28;20044;-94
2022/07/26 09:34:57;;;;;;;7.88;1.55;;;;;;;15.13;100.00;98816.50;5103213;28;20082;-94
2022/07/26 09:37:53;;;;;;;5.72;1.40;;;;;;;15.56;100.00;98804.81;5088020;28;20030;-94
2022/07/26 09:40:19;;;;;;;7.25;1.55;;;;;;;15.73;100.00;98800.81;5095585;28;20028;-94
2022/07/26 09:42:56;;;;;;;6.00;1.20;;;;;;;15.44;100.00;98795.50;5101105;28;20501;-93
2022/07/26 09:45:22;;;;;;;7.88;1.48;;;;;;;15.91;100.00;98784.53;5102943;28;20028;-95
2022/07/26 09:47:48;;;;;;;8.88;1.60;;;;;;;16.33;100.00;98796.41;5104177;28;20036;-95
2022/07/26 09:50:26;;;;;;;8.93;1.65;;;;;;;16.29;100.00;98787.72;5097058;28;20024;-94
2022/07/26 09:53:01;;;;;;;9.25;1.75;;;;;;;16.13;100.00;98778.59;5100026;28;20032;-96
2022/07/26 09:55:49;;;;;;;7.15;1.60;;;;;;;16.74;100.00;98783.63;5101792;28;20040;-95
2022/07/26 09:58:23;;;;;;;7.90;1.73;;;;;;;16.64;100.00;98775.19;5096591;28;20394;-96
2022/07/26 10:00:53;;;;;;;12.25;1.70;;;;;;;16.58;100.00;98775.41;5093617;28;20081;-95
2022/07/26 10:03:33;;;;;;;9.35;1.75;;;;;;;16.65;100.00;98779.53;5104338;28;20039;-96
2022/07/26 10:06:05;;;;;;;6.60;1.60;;;;;;;16.51;100.00;98776.53;5095350;28;20070;-95
2022/07/26 10:08:32;;;;;;;5.90;1.50;;;;;;;17.13;100.00;98769.16;5100967;28;20072;-95
2022/07/26 10:11:00;;;;;;;5.88;1.35;;;;;;;17.49;100.00;98766.13;5101683;28;20027;-95
2022/07/26 10:13:27;;;;;;;8.52;1.60;;;;;;;18.24;100.00;98763.22;5098605;28;20031;-94
2022/07/26 10:16:57;;;;;;;8.82;2.10;;;;;;;18.12;100.00;98770.78;5097847;28;20080;-95
2022/07/26 10:19:54;;;;;;;7.05;1.25;;;;;;;17.90;100.00;98747.88;5106146;28;20029;-95
2022/07/26 10:25:55;;;;;;;6.93;1.50;;;;;;;17.82;100.00;98760.50;5105364;28;20076;-96
2022/07/26 10:28:34;;;;;;;8.05;1.40;;;;;;;18.15;100.00;98760.09;5102920;28;20031;-96
2022/07/26 10:31:28;;;;;;;7.25;1.42;;;;;;;17.96;100.00;98757.34;5105581;28;20531;-96
2022/07/26 10:33:59;;;;;;;6.78;1.30;;;;;;;17.33;100.00;98755.28;5097738;28;20050;-95
2022/07/26 10:36:28;;;;;;;7.95;1.70;;;;;;;17.49;100.00;98760.84;5102979;28;20031;-94
2022/07/26 10:39:12;;;;;;;5.53;1.48;;;;;;;17.75;100.00;98760.72;5092737;28;20028;-96
2022/07/26 10:41:43;;;;;;;8.77;1.73;;;;;;;17.46;100.00;98755.69;5092617;28;20020;-95
2022/07/26 10:44:11;;;;;;;7.93;1.58;;;;;;;18.10;100.00;98764.72;5093478;28;20065;-93
2022/07/26 10:46:53;;;;;;;7.68;1.58;;;;;;;16.33;100.00;98778.81;5095299;28;20573;-93
2022/07/26 10:49:19;;;;;;;9.40;1.55;;;;;;;17.21;100.00;98777.66;5093585;28;20077;-94
2022/07/26 10:51:44;;;;;;;7.88;1.42;;;;;;;16.92;100.00;98789.22;5092673;28;20399;-94
2022/07/26 10:54:12;;;;;;;7.22;1.48;;;;;;;16.16;100.00;98789.03;5098491;28;20072;-93
2022/07/26 10:56:39;;;;;;;5.90;1.38;;;;;;;15.18;100.00;98806.72;5090562;28;20035;-94
2022/07/26 10:59:05;;;;;;;9.45;1.60;;;;;;;14.97;100.00;98811.63;5101786;28;20031;-95
2022/07/26 11:01:40;;;;;;;11.68;1.67;;;;;;;16.35;100.00;98832.28;5100739;28;20505;-94
2022/07/26 11:04:17;;;;;;;11.05;1.50;;;;;;;14.97;100.00;98829.16;5101769;28;20815;-93
2022/07/26 11:06:44;;;;;;;9.73;1.55;;;;;;;15.29;100.00;98836.19;5092837;28;20024;-93
2022/07/26 11:09:11;;;;;;;9.18;1.52;;;;;;;15.08;100.00;98827.13;5104112;28;20027;-94
2022/07/26 11:11:37;;;;;;;9.85;1.80;;;;;;;14.74;100.00;98838.50;5107832;28;20110;-94
2022/07/26 11:14:05;;;;;;;7.55;1.42;;;;;;;14.68;100.00;98836.88;5101572;28;20110;-93
2022/07/26 11:16:46;;;;;;;8.00;1.52;;;;;;;16.94;100.00;98801.44;5100492;28;20036;-93
2022/07/26 11:19:15;;;;;;;10.90;1.92;;;;;;;15.98;100.00;98799.22;5098065;28;20114;-92
2022/07/26 11:21:42;;;;;;;7.88;1.55;;;;;;;14.83;100.00;98819.03;5104710;28;20566;-93
2022/07/26 11:24:08;;;;;;;7.72;1.45;;;;;;;14.87;100.00;98825.06;5095472;28;20028;-94
2022/07/26 11:26:45;;;;;;;9.57;1.88;;;;;;;14.79;100.00;98826.09;5101705;28;20104;-93
2022/07/26 11:29:11;;;;;;;10.02;1.52;;;;;;;14.84;100.00;98826.00;5104654;28;20078;-93
2022/07/26 11:31:38;;;;;;;8.57;1.77;;;;;;;15.15;100.00;98827.81;5093664;28;20165;-96